sensor_id;sensor_type;location;lat;lon;timestamp;P1;durP1;ratioP1;P2;durP2;ratioP2
19617;SDS011;9956;51.006;13.670;2022-11-20T00:03:30;26.17;;;16.20;;
19617;SDS011;9956;51.006;13.670;2022-11-20T00:08:31;23.50;;;16.53;;
19617;SDS011;9956;51.006;13.670;2022-11-20T00:13:32;28.27;;;18.53;;
19617;SDS011;9956;51.006;13.670;2022-11-20T00:18:33;32.17;;;18.27;;
19617;SDS011;9956;51.006;13.670;2022-11-20T00:23:34;30.37;;;20.10;;
19617;SDS011;9956;51.006;13.670;2022-11-20T00:28:34;30.40;;;19.90;;
19617;SDS011;9956;51.006;13.670;2022-11-20T00:33:35;29.50;;;20.03;;
19617;SDS011;9956;51.006;13.670;2022-11-20T00:38:35;27.33;;;18.03;;
19617;SDS011;9956;51.006;13.670;2022-11-20T00:43:36;25.30;;;14.47;;
19617;SDS011;9956;51.006;13.670;2022-11-20T00:48:37;26.73;;;16.13;;
19617;SDS011;9956;51.006;13.670;2022-11-20T00:53:38;23.40;;;14.40;;
19617;SDS011;9956;51.006;13.670;2022-11-20T00:58:39;23.00;;;14.50;;
19617;SDS011;9956;51.006;13.670;2022-11-20T01:03:42;26.03;;;15.30;;
19617;SDS011;9956;51.006;13.670;2022-11-20T01:08:43;24.73;;;14.57;;
19617;SDS011;9956;51.006;13.670;2022-11-20T01:13:45;24.57;;;15.17;;
19617;SDS011;9956;51.006;13.670;2022-11-20T01:18:47;22.13;;;14.17;;
19617;SDS011;9956;51.006;13.670;2022-11-20T01:23:49;22.33;;;13.07;;
19617;SDS011;9956;51.006;13.670;2022-11-20T01:28:50;22.20;;;13.63;;
19617;SDS011;9956;51.006;13.670;2022-11-20T01:33:52;22.40;;;13.73;;
19617;SDS011;9956;51.006;13.670;2022-11-20T01:38:54;24.37;;;13.43;;
19617;SDS011;9956;51.006;13.670;2022-11-20T01:43:55;21.70;;;13.53;;
19617;SDS011;9956;51.006;13.670;2022-11-20T01:49:08;22.80;;;14.27;;
19617;SDS011;9956;51.006;13.670;2022-11-20T01:54:12;23.00;;;13.33;;
19617;SDS011;9956;51.006;13.670;2022-11-20T01:59:15;24.73;;;14.87;;
19617;SDS011;9956;51.006;13.670;2022-11-20T02:04:18;23.43;;;14.43;;
19617;SDS011;9956;51.006;13.670;2022-11-20T02:09:18;24.30;;;13.57;;
19617;SDS011;9956;51.006;13.670;2022-11-20T02:14:19;22.13;;;13.17;;
19617;SDS011;9956;51.006;13.670;2022-11-20T02:19:26;19.30;;;12.77;;
19617;SDS011;9956;51.006;13.670;2022-11-20T02:24:28;21.50;;;12.43;;
19617;SDS011;9956;51.006;13.670;2022-11-20T02:29:36;19.33;;;12.20;;
19617;SDS011;9956;51.006;13.670;2022-11-20T02:34:39;20.67;;;12.23;;
19617;SDS011;9956;51.006;13.670;2022-11-20T02:39:39;25.10;;;12.70;;
19617;SDS011;9956;51.006;13.670;2022-11-20T02:44:40;21.50;;;12.70;;
19617;SDS011;9956;51.006;13.670;2022-11-20T02:49:41;19.50;;;11.13;;
19617;SDS011;9956;51.006;13.670;2022-11-20T02:54:41;22.17;;;12.00;;
19617;SDS011;9956;51.006;13.670;2022-11-20T02:59:41;20.07;;;12.60;;
19617;SDS011;9956;51.006;13.670;2022-11-20T03:04:42;22.40;;;12.07;;
19617;SDS011;9956;51.006;13.670;2022-11-20T03:09:42;21.70;;;12.23;;
19617;SDS011;9956;51.006;13.670;2022-11-20T03:14:43;17.10;;;10.50;;
19617;SDS011;9956;51.006;13.670;2022-11-20T03:19:43;16.20;;;10.60;;
19617;SDS011;9956;51.006;13.670;2022-11-20T03:24:43;18.63;;;10.93;;
19617;SDS011;9956;51.006;13.670;2022-11-20T03:29:44;20.33;;;11.00;;
19617;SDS011;9956;51.006;13.670;2022-11-20T03:34:44;19.60;;;12.17;;
19617;SDS011;9956;51.006;13.670;2022-11-20T03:39:45;20.07;;;12.23;;
19617;SDS011;9956;51.006;13.670;2022-11-20T03:44:45;16.00;;;10.87;;
19617;SDS011;9956;51.006;13.670;2022-11-20T03:49:45;18.03;;;10.60;;
19617;SDS011;9956;51.006;13.670;2022-11-20T03:54:46;17.17;;;10.07;;
19617;SDS011;9956;51.006;13.670;2022-11-20T03:59:46;16.07;;;9.50;;
19617;SDS011;9956;51.006;13.670;2022-11-20T04:04:47;20.30;;;10.80;;
19617;SDS011;9956;51.006;13.670;2022-11-20T04:09:47;17.70;;;10.23;;
19617;SDS011;9956;51.006;13.670;2022-11-20T04:14:48;20.90;;;11.80;;
19617;SDS011;9956;51.006;13.670;2022-11-20T04:19:48;20.50;;;10.40;;
19617;SDS011;9956;51.006;13.670;2022-11-20T04:24:49;17.40;;;9.97;;
19617;SDS011;9956;51.006;13.670;2022-11-20T04:29:49;18.67;;;10.87;;
19617;SDS011;9956;51.006;13.670;2022-11-20T04:34:49;17.73;;;11.33;;
19617;SDS011;9956;51.006;13.670;2022-11-20T04:39:50;16.83;;;10.43;;
19617;SDS011;9956;51.006;13.670;2022-11-20T04:44:50;16.50;;;10.17;;
19617;SDS011;9956;51.006;13.670;2022-11-20T04:49:51;15.33;;;9.90;;
19617;SDS011;9956;51.006;13.670;2022-11-20T04:54:51;15.50;;;10.07;;
19617;SDS011;9956;51.006;13.670;2022-11-20T04:59:54;17.17;;;9.53;;
19617;SDS011;9956;51.006;13.670;2022-11-20T05:04:55;16.00;;;9.97;;
19617;SDS011;9956;51.006;13.670;2022-11-20T05:09:55;16.87;;;10.07;;
19617;SDS011;9956;51.006;13.670;2022-11-20T05:14:56;19.50;;;10.63;;
19617;SDS011;9956;51.006;13.670;2022-11-20T05:19:56;16.47;;;9.83;;
19617;SDS011;9956;51.006;13.670;2022-11-20T05:24:56;15.50;;;8.40;;
19617;SDS011;9956;51.006;13.670;2022-11-20T05:29:57;12.60;;;8.43;;
19617;SDS011;9956;51.006;13.670;2022-11-20T05:34:57;17.10;;;10.00;;
19617;SDS011;9956;51.006;13.670;2022-11-20T05:39:58;16.37;;;9.53;;
19617;SDS011;9956;51.006;13.670;2022-11-20T05:44:59;14.67;;;8.60;;
19617;SDS011;9956;51.006;13.670;2022-11-20T05:50:00;14.03;;;8.67;;
19617;SDS011;9956;51.006;13.670;2022-11-20T05:55:01;15.40;;;8.70;;
19617;SDS011;9956;51.006;13.670;2022-11-20T06:00:02;14.27;;;8.80;;
19617;SDS011;9956;51.006;13.670;2022-11-20T06:05:04;15.07;;;8.40;;
19617;SDS011;9956;51.006;13.670;2022-11-20T06:10:05;15.77;;;8.57;;
19617;SDS011;9956;51.006;13.670;2022-11-20T06:15:06;15.07;;;8.57;;
19617;SDS011;9956;51.006;13.670;2022-11-20T06:20:07;13.63;;;8.63;;
19617;SDS011;9956;51.006;13.670;2022-11-20T06:25:09;13.77;;;7.83;;
19617;SDS011;9956;51.006;13.670;2022-11-20T06:30:10;14.10;;;8.47;;
19617;SDS011;9956;51.006;13.670;2022-11-20T06:35:11;13.53;;;8.10;;
19617;SDS011;9956;51.006;13.670;2022-11-20T06:40:11;15.90;;;9.83;;
19617;SDS011;9956;51.006;13.670;2022-11-20T06:45:12;14.73;;;9.10;;
19617;SDS011;9956;51.006;13.670;2022-11-20T06:50:12;14.20;;;8.33;;
19617;SDS011;9956;51.006;13.670;2022-11-20T06:55:13;14.07;;;8.57;;
19617;SDS011;9956;51.006;13.670;2022-11-20T07:00:14;15.17;;;9.20;;
19617;SDS011;9956;51.006;13.670;2022-11-20T07:05:14;12.90;;;8.20;;
19617;SDS011;9956;51.006;13.670;2022-11-20T07:10:15;14.77;;;9.23;;
19617;SDS011;9956;51.006;13.670;2022-11-20T07:15:20;17.70;;;9.50;;
19617;SDS011;9956;51.006;13.670;2022-11-20T07:20:22;14.83;;;8.93;;
19617;SDS011;9956;51.006;13.670;2022-11-20T07:25:22;14.23;;;8.03;;
19617;SDS011;9956;51.006;13.670;2022-11-20T07:30:29;14.73;;;8.40;;
19617;SDS011;9956;51.006;13.670;2022-11-20T07:35:30;14.67;;;8.47;;
19617;SDS011;9956;51.006;13.670;2022-11-20T07:40:30;13.30;;;8.40;;
19617;SDS011;9956;51.006;13.670;2022-11-20T07:45:31;15.40;;;9.17;;
19617;SDS011;9956;51.006;13.670;2022-11-20T07:50:31;16.92;;;12.20;;
19617;SDS011;9956;51.006;13.670;2022-11-20T07:55:33;13.77;;;9.13;;
19617;SDS011;9956;51.006;13.670;2022-11-20T08:00:33;10.18;;;7.93;;
19617;SDS011;9956;51.006;13.670;2022-11-20T08:05:33;12.25;;;8.40;;
19617;SDS011;9956;51.006;13.670;2022-11-20T08:10:34;9.38;;;7.75;;
19617;SDS011;9956;51.006;13.670;2022-11-20T08:15:35;10.52;;;7.63;;
19617;SDS011;9956;51.006;13.670;2022-11-20T08:20:36;12.52;;;10.60;;
19617;SDS011;9956;51.006;13.670;2022-11-20T08:25:37;12.02;;;10.27;;
19617;SDS011;9956;51.006;13.670;2022-11-20T08:30:37;12.77;;;10.07;;
19617;SDS011;9956;51.006;13.670;2022-11-20T08:35:38;12.98;;;10.57;;
19617;SDS011;9956;51.006;13.670;2022-11-20T08:40:39;12.98;;;10.25;;
19617;SDS011;9956;51.006;13.670;2022-11-20T08:45:39;13.13;;;10.30;;
19617;SDS011;9956;51.006;13.670;2022-11-20T08:50:39;10.50;;;9.20;;
19617;SDS011;9956;51.006;13.670;2022-11-20T08:55:40;13.55;;;10.48;;
19617;SDS011;9956;51.006;13.670;2022-11-20T09:00:40;17.48;;;12.63;;
19617;SDS011;9956;51.006;13.670;2022-11-20T09:05:41;16.50;;;12.48;;
19617;SDS011;9956;51.006;13.670;2022-11-20T09:10:42;16.38;;;13.23;;
19617;SDS011;9956;51.006;13.670;2022-11-20T09:15:43;14.98;;;13.13;;
19617;SDS011;9956;51.006;13.670;2022-11-20T09:20:43;16.27;;;10.63;;
19617;SDS011;9956;51.006;13.670;2022-11-20T09:25:44;27.17;;;20.83;;
19617;SDS011;9956;51.006;13.670;2022-11-20T09:30:44;18.33;;;14.02;;
19617;SDS011;9956;51.006;13.670;2022-11-20T09:35:45;17.88;;;13.13;;
19617;SDS011;9956;51.006;13.670;2022-11-20T09:46:38;16.08;;;12.52;;
19617;SDS011;9956;51.006;13.670;2022-11-20T09:51:47;23.70;;;20.48;;
19617;SDS011;9956;51.006;13.670;2022-11-20T09:56:55;19.67;;;17.55;;
19617;SDS011;9956;51.006;13.670;2022-11-20T10:01:59;14.73;;;13.13;;
19617;SDS011;9956;51.006;13.670;2022-11-20T10:12:46;15.00;;;13.55;;
19617;SDS011;9956;51.006;13.670;2022-11-20T10:18:20;17.00;;;15.20;;
19617;SDS011;9956;51.006;13.670;2022-11-20T10:29:13;9.65;;;8.65;;
19617;SDS011;9956;51.006;13.670;2022-11-20T10:34:18;7.13;;;6.43;;
19617;SDS011;9956;51.006;13.670;2022-11-20T10:39:25;8.07;;;7.28;;
19617;SDS011;9956;51.006;13.670;2022-11-20T10:44:31;8.27;;;7.47;;
19617;SDS011;9956;51.006;13.670;2022-11-20T10:49:51;10.05;;;9.05;;
19617;SDS011;9956;51.006;13.670;2022-11-20T11:00:00;9.20;;;6.93;;
19617;SDS011;9956;51.006;13.670;2022-11-20T11:10:37;8.82;;;6.65;;
19617;SDS011;9956;51.006;13.670;2022-11-20T11:15:41;10.52;;;5.90;;
19617;SDS011;9956;51.006;13.670;2022-11-20T11:20:49;9.00;;;5.82;;
19617;SDS011;9956;51.006;13.670;2022-11-20T11:25:56;7.38;;;5.07;;
19617;SDS011;9956;51.006;13.670;2022-11-20T11:30:58;8.48;;;5.82;;
19617;SDS011;9956;51.006;13.670;2022-11-20T11:35:59;7.20;;;6.05;;
19617;SDS011;9956;51.006;13.670;2022-11-20T11:41:05;7.45;;;5.82;;
19617;SDS011;9956;51.006;13.670;2022-11-20T11:46:40;7.53;;;6.25;;
19617;SDS011;9956;51.006;13.670;2022-11-20T11:56:49;10.13;;;7.60;;
19617;SDS011;9956;51.006;13.670;2022-11-20T12:01:53;10.10;;;7.20;;
19617;SDS011;9956;51.006;13.670;2022-11-20T12:07:01;11.30;;;8.05;;
19617;SDS011;9956;51.006;13.670;2022-11-20T12:12:29;13.07;;;8.23;;
19617;SDS011;9956;51.006;13.670;2022-11-20T12:17:37;10.27;;;7.72;;
19617;SDS011;9956;51.006;13.670;2022-11-20T12:22:47;11.98;;;8.70;;
19617;SDS011;9956;51.006;13.670;2022-11-20T12:33:13;11.00;;;8.10;;
19617;SDS011;9956;51.006;13.670;2022-11-20T12:38:29;12.75;;;8.55;;
19617;SDS011;9956;51.006;13.670;2022-11-20T12:43:58;13.65;;;8.80;;
19617;SDS011;9956;51.006;13.670;2022-11-20T12:49:30;13.88;;;9.55;;
19617;SDS011;9956;51.006;13.670;2022-11-20T12:55:00;13.40;;;9.30;;
19617;SDS011;9956;51.006;13.670;2022-11-20T13:00:14;14.18;;;9.82;;
19617;SDS011;9956;51.006;13.670;2022-11-20T13:10:46;14.15;;;9.55;;
19617;SDS011;9956;51.006;13.670;2022-11-20T13:16:52;12.45;;;8.02;;
19617;SDS011;9956;51.006;13.670;2022-11-20T13:21:42;12.48;;;9.00;;
19617;SDS011;9956;51.006;13.670;2022-11-20T13:27:00;9.07;;;6.30;;
19617;SDS011;9956;51.006;13.670;2022-11-20T13:37:23;11.23;;;7.63;;
19617;SDS011;9956;51.006;13.670;2022-11-20T13:42:27;11.27;;;7.97;;
19617;SDS011;9956;51.006;13.670;2022-11-20T13:47:28;9.73;;;7.05;;
19617;SDS011;9956;51.006;13.670;2022-11-20T13:52:40;8.80;;;6.25;;
19617;SDS011;9956;51.006;13.670;2022-11-20T14:08:26;11.93;;;9.35;;
19617;SDS011;9956;51.006;13.670;2022-11-20T14:13:31;12.15;;;8.85;;
19617;SDS011;9956;51.006;13.670;2022-11-20T14:18:32;10.20;;;6.93;;
19617;SDS011;9956;51.006;13.670;2022-11-20T14:23:32;18.25;;;13.50;;
19617;SDS011;9956;51.006;13.670;2022-11-20T14:28:32;16.60;;;12.45;;
19617;SDS011;9956;51.006;13.670;2022-11-20T14:33:33;13.73;;;9.40;;
19617;SDS011;9956;51.006;13.670;2022-11-20T14:38:34;14.30;;;11.57;;
19617;SDS011;9956;51.006;13.670;2022-11-20T14:43:34;11.40;;;8.80;;
19617;SDS011;9956;51.006;13.670;2022-11-20T14:48:41;13.23;;;9.10;;
19617;SDS011;9956;51.006;13.670;2022-11-20T14:53:44;10.65;;;7.32;;
19617;SDS011;9956;51.006;13.670;2022-11-20T14:58:44;12.68;;;9.45;;
19617;SDS011;9956;51.006;13.670;2022-11-20T15:03:59;12.55;;;8.93;;
19617;SDS011;9956;51.006;13.670;2022-11-20T15:09:13;11.27;;;8.25;;
19617;SDS011;9956;51.006;13.670;2022-11-20T15:14:14;18.30;;;12.98;;
19617;SDS011;9956;51.006;13.670;2022-11-20T15:19:19;12.32;;;9.13;;
19617;SDS011;9956;51.006;13.670;2022-11-20T15:24:21;12.60;;;9.10;;
19617;SDS011;9956;51.006;13.670;2022-11-20T15:29:21;18.80;;;10.20;;
19617;SDS011;9956;51.006;13.670;2022-11-20T15:34:23;14.60;;;9.88;;
19617;SDS011;9956;51.006;13.670;2022-11-20T15:39:23;15.75;;;10.55;;
19617;SDS011;9956;51.006;13.670;2022-11-20T15:44:24;14.93;;;10.48;;
19617;SDS011;9956;51.006;13.670;2022-11-20T15:49:24;17.00;;;11.05;;
19617;SDS011;9956;51.006;13.670;2022-11-20T15:54:25;23.83;;;12.55;;
19617;SDS011;9956;51.006;13.670;2022-11-20T15:59:25;16.58;;;10.45;;
19617;SDS011;9956;51.006;13.670;2022-11-20T16:04:26;17.45;;;10.05;;
19617;SDS011;9956;51.006;13.670;2022-11-20T16:09:26;14.68;;;10.32;;
19617;SDS011;9956;51.006;13.670;2022-11-20T16:14:27;24.60;;;17.77;;
19617;SDS011;9956;51.006;13.670;2022-11-20T16:19:46;30.77;;;18.50;;
19617;SDS011;9956;51.006;13.670;2022-11-20T16:24:46;23.27;;;14.93;;
19617;SDS011;9956;51.006;13.670;2022-11-20T16:29:47;24.85;;;15.80;;
19617;SDS011;9956;51.006;13.670;2022-11-20T16:34:47;23.90;;;17.13;;
19617;SDS011;9956;51.006;13.670;2022-11-20T16:39:48;16.13;;;10.18;;
19617;SDS011;9956;51.006;13.670;2022-11-20T16:44:51;18.88;;;12.23;;
19617;SDS011;9956;51.006;13.670;2022-11-20T16:49:52;20.30;;;11.93;;
19617;SDS011;9956;51.006;13.670;2022-11-20T16:54:52;18.90;;;12.00;;
19617;SDS011;9956;51.006;13.670;2022-11-20T16:59:53;17.63;;;12.55;;
19617;SDS011;9956;51.006;13.670;2022-11-20T17:04:53;16.52;;;11.82;;
19617;SDS011;9956;51.006;13.670;2022-11-20T17:09:53;17.02;;;11.55;;
19617;SDS011;9956;51.006;13.670;2022-11-20T17:14:57;18.52;;;12.02;;
19617;SDS011;9956;51.006;13.670;2022-11-20T17:19:57;19.88;;;13.07;;
19617;SDS011;9956;51.006;13.670;2022-11-20T17:24:58;19.95;;;12.77;;
19617;SDS011;9956;51.006;13.670;2022-11-20T17:29:58;24.73;;;15.38;;
19617;SDS011;9956;51.006;13.670;2022-11-20T17:34:59;22.20;;;13.97;;
19617;SDS011;9956;51.006;13.670;2022-11-20T17:39:59;19.58;;;13.10;;
19617;SDS011;9956;51.006;13.670;2022-11-20T17:45:00;22.05;;;13.48;;
19617;SDS011;9956;51.006;13.670;2022-11-20T17:50:00;24.97;;;15.77;;
19617;SDS011;9956;51.006;13.670;2022-11-20T17:55:00;24.60;;;15.88;;
19617;SDS011;9956;51.006;13.670;2022-11-20T18:00:01;24.40;;;15.02;;
19617;SDS011;9956;51.006;13.670;2022-11-20T18:05:05;22.42;;;14.77;;
19617;SDS011;9956;51.006;13.670;2022-11-20T18:10:06;26.10;;;17.35;;
19617;SDS011;9956;51.006;13.670;2022-11-20T18:15:07;23.02;;;15.10;;
19617;SDS011;9956;51.006;13.670;2022-11-20T18:20:07;22.10;;;13.95;;
19617;SDS011;9956;51.006;13.670;2022-11-20T18:25:08;27.40;;;20.33;;
19617;SDS011;9956;51.006;13.670;2022-11-20T18:30:09;24.60;;;18.33;;
19617;SDS011;9956;51.006;13.670;2022-11-20T18:35:10;18.97;;;13.17;;
19617;SDS011;9956;51.006;13.670;2022-11-20T18:40:11;22.30;;;13.80;;
19617;SDS011;9956;51.006;13.670;2022-11-20T18:45:12;21.35;;;14.25;;
19617;SDS011;9956;51.006;13.670;2022-11-20T18:50:12;19.67;;;13.73;;
19617;SDS011;9956;51.006;13.670;2022-11-20T18:55:12;17.90;;;12.07;;
19617;SDS011;9956;51.006;13.670;2022-11-20T19:00:13;18.05;;;11.52;;
19617;SDS011;9956;51.006;13.670;2022-11-20T19:05:14;18.27;;;12.73;;
19617;SDS011;9956;51.006;13.670;2022-11-20T19:10:16;13.77;;;8.73;;
19617;SDS011;9956;51.006;13.670;2022-11-20T19:15:19;15.60;;;10.63;;
19617;SDS011;9956;51.006;13.670;2022-11-20T19:20:19;13.70;;;9.65;;
19617;SDS011;9956;51.006;13.670;2022-11-20T19:25:20;14.10;;;9.85;;
19617;SDS011;9956;51.006;13.670;2022-11-20T19:30:20;15.43;;;10.93;;
19617;SDS011;9956;51.006;13.670;2022-11-20T19:35:21;14.70;;;10.25;;
19617;SDS011;9956;51.006;13.670;2022-11-20T19:40:21;16.10;;;10.70;;
19617;SDS011;9956;51.006;13.670;2022-11-20T19:45:21;17.77;;;11.82;;
19617;SDS011;9956;51.006;13.670;2022-11-20T19:50:22;16.65;;;11.95;;
19617;SDS011;9956;51.006;13.670;2022-11-20T19:55:22;17.58;;;12.45;;
19617;SDS011;9956;51.006;13.670;2022-11-20T20:00:23;18.92;;;13.02;;
19617;SDS011;9956;51.006;13.670;2022-11-20T20:05:23;19.45;;;12.98;;
19617;SDS011;9956;51.006;13.670;2022-11-20T20:10:24;23.63;;;15.73;;
19617;SDS011;9956;51.006;13.670;2022-11-20T20:15:24;24.05;;;16.73;;
19617;SDS011;9956;51.006;13.670;2022-11-20T20:20:25;24.05;;;17.65;;
19617;SDS011;9956;51.006;13.670;2022-11-20T20:25:25;19.92;;;14.48;;
19617;SDS011;9956;51.006;13.670;2022-11-20T20:30:26;27.67;;;21.38;;
19617;SDS011;9956;51.006;13.670;2022-11-20T20:35:26;31.35;;;22.17;;
19617;SDS011;9956;51.006;13.670;2022-11-20T20:40:27;25.63;;;18.02;;
19617;SDS011;9956;51.006;13.670;2022-11-20T20:45:27;24.05;;;15.85;;
19617;SDS011;9956;51.006;13.670;2022-11-20T20:50:28;21.45;;;16.20;;
19617;SDS011;9956;51.006;13.670;2022-11-20T20:55:28;22.23;;;16.27;;
19617;SDS011;9956;51.006;13.670;2022-11-20T21:00:28;29.63;;;17.25;;
19617;SDS011;9956;51.006;13.670;2022-11-20T21:05:29;25.30;;;17.45;;
19617;SDS011;9956;51.006;13.670;2022-11-20T21:10:29;24.85;;;18.33;;
19617;SDS011;9956;51.006;13.670;2022-11-20T21:15:30;24.02;;;16.77;;
19617;SDS011;9956;51.006;13.670;2022-11-20T21:20:30;24.92;;;17.60;;
19617;SDS011;9956;51.006;13.670;2022-11-20T21:25:49;27.40;;;17.95;;
19617;SDS011;9956;51.006;13.670;2022-11-20T21:30:50;28.77;;;18.25;;
19617;SDS011;9956;51.006;13.670;2022-11-20T21:35:50;42.50;;;36.30;;
19617;SDS011;9956;51.006;13.670;2022-11-20T21:40:51;25.10;;;16.42;;
19617;SDS011;9956;51.006;13.670;2022-11-20T21:45:51;26.85;;;17.65;;
19617;SDS011;9956;51.006;13.670;2022-11-20T21:50:52;28.52;;;18.17;;
19617;SDS011;9956;51.006;13.670;2022-11-20T21:55:53;26.77;;;17.75;;
19617;SDS011;9956;51.006;13.670;2022-11-20T22:00:54;27.60;;;18.13;;
19617;SDS011;9956;51.006;13.670;2022-11-20T22:05:55;27.02;;;18.25;;
19617;SDS011;9956;51.006;13.670;2022-11-20T22:10:56;28.02;;;18.90;;
19617;SDS011;9956;51.006;13.670;2022-11-20T22:16:00;24.20;;;16.35;;
19617;SDS011;9956;51.006;13.670;2022-11-20T22:21:04;26.65;;;18.20;;
19617;SDS011;9956;51.006;13.670;2022-11-20T22:26:06;31.30;;;19.73;;
19617;SDS011;9956;51.006;13.670;2022-11-20T22:31:09;31.83;;;21.83;;
19617;SDS011;9956;51.006;13.670;2022-11-20T22:36:11;30.63;;;21.45;;
19617;SDS011;9956;51.006;13.670;2022-11-20T22:41:16;30.08;;;21.65;;
19617;SDS011;9956;51.006;13.670;2022-11-20T22:46:18;27.67;;;20.20;;
19617;SDS011;9956;51.006;13.670;2022-11-20T22:51:22;26.00;;;20.05;;
19617;SDS011;9956;51.006;13.670;2022-11-20T22:56:24;28.08;;;20.80;;
19617;SDS011;9956;51.006;13.670;2022-11-20T23:01:25;31.13;;;21.55;;
19617;SDS011;9956;51.006;13.670;2022-11-20T23:06:27;33.58;;;22.92;;
19617;SDS011;9956;51.006;13.670;2022-11-20T23:11:29;33.72;;;23.08;;
19617;SDS011;9956;51.006;13.670;2022-11-20T23:16:30;31.70;;;21.92;;
19617;SDS011;9956;51.006;13.670;2022-11-20T23:21:32;33.97;;;23.88;;
19617;SDS011;9956;51.006;13.670;2022-11-20T23:26:34;33.65;;;23.05;;
19617;SDS011;9956;51.006;13.670;2022-11-20T23:31:36;34.97;;;23.27;;
19617;SDS011;9956;51.006;13.670;2022-11-20T23:36:36;36.33;;;25.23;;
19617;SDS011;9956;51.006;13.670;2022-11-20T23:41:37;32.60;;;23.98;;
19617;SDS011;9956;51.006;13.670;2022-11-20T23:51:59;32.00;;;22.85;;
19617;SDS011;9956;51.006;13.670;2022-11-20T23:56:59;31.65;;;23.55;;
